sensor_id;sensor_type;location;lat;lon;timestamp;temperature;humidity
20815;DHT22;10568;48.176;16.316;2023-05-19T00:02:15;9.80;99.90
20815;DHT22;10568;48.176;16.316;2023-05-19T00:04:43;9.80;99.90
20815;DHT22;10568;48.176;16.316;2023-05-19T00:07:10;9.80;99.90
20815;DHT22;10568;48.176;16.316;2023-05-19T00:09:36;9.80;99.90
20815;DHT22;10568;48.176;16.316;2023-05-19T00:12:02;9.80;99.90
20815;DHT22;10568;48.176;16.316;2023-05-19T00:14:28;9.80;99.90
20815;DHT22;10568;48.176;16.316;2023-05-19T00:16:54;9.80;99.90
20815;DHT22;10568;48.176;16.316;2023-05-19T00:19:22;9.80;99.90
20815;DHT22;10568;48.176;16.316;2023-05-19T00:21:49;9.70;99.90
20815;DHT22;10568;48.176;16.316;2023-05-19T00:24:14;9.70;99.90
20815;DHT22;10568;48.176;16.316;2023-05-19T00:26:40;9.80;99.90
20815;DHT22;10568;48.176;16.316;2023-05-19T00:29:06;9.70;99.90
20815;DHT22;10568;48.176;16.316;2023-05-19T00:31:32;9.80;99.90
20815;DHT22;10568;48.176;16.316;2023-05-19T00:33:58;9.80;99.90
20815;DHT22;10568;48.176;16.316;2023-05-19T00:36:24;9.70;99.90
20815;DHT22;10568;48.176;16.316;2023-05-19T00:38:50;9.70;99.90
20815;DHT22;10568;48.176;16.316;2023-05-19T00:41:16;9.70;99.90
20815;DHT22;10568;48.176;16.316;2023-05-19T00:43:42;9.70;99.90
20815;DHT22;10568;48.176;16.316;2023-05-19T00:46:08;9.70;99.90
20815;DHT22;10568;48.176;16.316;2023-05-19T00:48:35;9.70;99.90
20815;DHT22;10568;48.176;16.316;2023-05-19T00:51:02;9.70;99.90
20815;DHT22;10568;48.176;16.316;2023-05-19T00:53:34;9.70;99.90
20815;DHT22;10568;48.176;16.316;2023-05-19T00:56:00;9.60;99.90
20815;DHT22;10568;48.176;16.316;2023-05-19T00:58:28;9.60;99.90
20815;DHT22;10568;48.176;16.316;2023-05-19T01:00:59;9.50;99.90
20815;DHT22;10568;48.176;16.316;2023-05-19T01:03:31;9.50;99.90
20815;DHT22;10568;48.176;16.316;2023-05-19T01:05:59;9.50;99.90
20815;DHT22;10568;48.176;16.316;2023-05-19T01:08:30;9.40;99.90
20815;DHT22;10568;48.176;16.316;2023-05-19T01:10:57;9.40;99.90
20815;DHT22;10568;48.176;16.316;2023-05-19T01:13:25;9.40;99.90
20815;DHT22;10568;48.176;16.316;2023-05-19T01:16:10;9.30;99.90
20815;DHT22;10568;48.176;16.316;2023-05-19T01:18:56;9.30;99.90
20815;DHT22;10568;48.176;16.316;2023-05-19T01:30:29;9.10;99.90
20815;DHT22;10568;48.176;16.316;2023-05-19T01:33:00;9.00;99.90
20815;DHT22;10568;48.176;16.316;2023-05-19T01:35:27;9.00;99.90
20815;DHT22;10568;48.176;16.316;2023-05-19T01:37:56;9.00;99.90
20815;DHT22;10568;48.176;16.316;2023-05-19T01:40:24;9.00;99.90
20815;DHT22;10568;48.176;16.316;2023-05-19T01:42:52;8.90;99.90
20815;DHT22;10568;48.176;16.316;2023-05-19T01:45:19;8.90;99.90
20815;DHT22;10568;48.176;16.316;2023-05-19T01:47:51;8.90;99.90
20815;DHT22;10568;48.176;16.316;2023-05-19T01:50:17;8.90;99.90
20815;DHT22;10568;48.176;16.316;2023-05-19T01:52:43;8.90;99.90
20815;DHT22;10568;48.176;16.316;2023-05-19T01:55:09;8.90;99.90
20815;DHT22;10568;48.176;16.316;2023-05-19T02:00:52;8.90;99.90
20815;DHT22;10568;48.176;16.316;2023-05-19T02:03:42;8.90;99.90
20815;DHT22;10568;48.176;16.316;2023-05-19T02:09:22;8.90;99.90
20815;DHT22;10568;48.176;16.316;2023-05-19T02:12:02;8.90;99.90
20815;DHT22;10568;48.176;16.316;2023-05-19T02:17:44;8.80;99.90
20815;DHT22;10568;48.176;16.316;2023-05-19T02:20:16;8.80;99.90
20815;DHT22;10568;48.176;16.316;2023-05-19T02:22:43;8.80;99.90
20815;DHT22;10568;48.176;16.316;2023-05-19T02:25:10;8.80;99.90
20815;DHT22;10568;48.176;16.316;2023-05-19T02:27:37;8.80;99.90
20815;DHT22;10568;48.176;16.316;2023-05-19T02:30:04;8.90;99.90
20815;DHT22;10568;48.176;16.316;2023-05-19T02:32:31;8.80;99.90
20815;DHT22;10568;48.176;16.316;2023-05-19T02:34:57;8.80;99.90
20815;DHT22;10568;48.176;16.316;2023-05-19T02:37:23;8.80;99.90
20815;DHT22;10568;48.176;16.316;2023-05-19T02:39:50;8.80;99.90
20815;DHT22;10568;48.176;16.316;2023-05-19T02:42:18;8.90;99.90
20815;DHT22;10568;48.176;16.316;2023-05-19T02:44:44;8.80;99.90
20815;DHT22;10568;48.176;16.316;2023-05-19T02:47:11;8.90;99.90
20815;DHT22;10568;48.176;16.316;2023-05-19T02:49:36;8.90;99.90
20815;DHT22;10568;48.176;16.316;2023-05-19T02:52:03;8.80;99.90
20815;DHT22;10568;48.176;16.316;2023-05-19T02:54:30;8.80;99.90
20815;DHT22;10568;48.176;16.316;2023-05-19T02:56:56;8.80;99.90
20815;DHT22;10568;48.176;16.316;2023-05-19T02:59:22;8.80;99.90
20815;DHT22;10568;48.176;16.316;2023-05-19T03:01:51;8.80;99.90
20815;DHT22;10568;48.176;16.316;2023-05-19T03:04:17;8.80;99.90
20815;DHT22;10568;48.176;16.316;2023-05-19T03:06:45;8.90;99.90
20815;DHT22;10568;48.176;16.316;2023-05-19T03:09:11;8.90;99.90
20815;DHT22;10568;48.176;16.316;2023-05-19T03:11:38;8.90;99.90
20815;DHT22;10568;48.176;16.316;2023-05-19T03:14:04;8.90;99.90
20815;DHT22;10568;48.176;16.316;2023-05-19T03:16:30;8.90;99.90
20815;DHT22;10568;48.176;16.316;2023-05-19T03:18:56;8.90;99.90
20815;DHT22;10568;48.176;16.316;2023-05-19T03:21:21;8.90;99.90
20815;DHT22;10568;48.176;16.316;2023-05-19T03:23:47;8.90;99.90
20815;DHT22;10568;48.176;16.316;2023-05-19T03:26:13;8.90;99.90
20815;DHT22;10568;48.176;16.316;2023-05-19T03:28:39;8.90;99.90
20815;DHT22;10568;48.176;16.316;2023-05-19T03:31:04;8.90;99.90
20815;DHT22;10568;48.176;16.316;2023-05-19T03:33:32;8.90;99.90
20815;DHT22;10568;48.176;16.316;2023-05-19T03:35:57;8.90;99.90
20815;DHT22;10568;48.176;16.316;2023-05-19T03:38:24;9.00;99.90
20815;DHT22;10568;48.176;16.316;2023-05-19T03:40:49;8.90;99.90
20815;DHT22;10568;48.176;16.316;2023-05-19T03:43:15;8.90;99.90
20815;DHT22;10568;48.176;16.316;2023-05-19T03:45:41;8.90;99.90
20815;DHT22;10568;48.176;16.316;2023-05-19T03:48:07;8.90;99.90
20815;DHT22;10568;48.176;16.316;2023-05-19T03:50:33;8.90;99.90
20815;DHT22;10568;48.176;16.316;2023-05-19T03:52:59;9.00;99.90
20815;DHT22;10568;48.176;16.316;2023-05-19T03:55:25;8.90;99.90
20815;DHT22;10568;48.176;16.316;2023-05-19T03:57:54;8.90;99.90
20815;DHT22;10568;48.176;16.316;2023-05-19T04:00:20;8.90;99.90
20815;DHT22;10568;48.176;16.316;2023-05-19T04:02:46;8.90;99.90
20815;DHT22;10568;48.176;16.316;2023-05-19T04:05:12;8.90;99.90
20815;DHT22;10568;48.176;16.316;2023-05-19T04:07:38;8.90;99.90
20815;DHT22;10568;48.176;16.316;2023-05-19T04:10:04;8.90;99.90
20815;DHT22;10568;48.176;16.316;2023-05-19T04:12:30;8.80;99.90
20815;DHT22;10568;48.176;16.316;2023-05-19T04:14:56;8.80;99.90
20815;DHT22;10568;48.176;16.316;2023-05-19T04:17:22;8.80;99.90
20815;DHT22;10568;48.176;16.316;2023-05-19T04:19:51;8.80;99.90
20815;DHT22;10568;48.176;16.316;2023-05-19T04:22:16;8.80;99.90
20815;DHT22;10568;48.176;16.316;2023-05-19T04:24:42;8.80;99.90
20815;DHT22;10568;48.176;16.316;2023-05-19T04:27:08;8.80;99.90
20815;DHT22;10568;48.176;16.316;2023-05-19T04:29:37;8.80;99.90
20815;DHT22;10568;48.176;16.316;2023-05-19T04:32:04;8.80;99.90
20815;DHT22;10568;48.176;16.316;2023-05-19T04:34:35;8.80;99.90
20815;DHT22;10568;48.176;16.316;2023-05-19T04:37:07;8.80;99.90
20815;DHT22;10568;48.176;16.316;2023-05-19T04:39:34;8.90;99.90
20815;DHT22;10568;48.176;16.316;2023-05-19T04:42:03;8.90;99.90
20815;DHT22;10568;48.176;16.316;2023-05-19T04:44:29;8.90;99.90
20815;DHT22;10568;48.176;16.316;2023-05-19T04:50:06;9.10;99.90
20815;DHT22;10568;48.176;16.316;2023-05-19T04:52:32;9.20;99.90
20815;DHT22;10568;48.176;16.316;2023-05-19T04:54:58;9.30;99.90
20815;DHT22;10568;48.176;16.316;2023-05-19T04:57:24;9.40;99.90
20815;DHT22;10568;48.176;16.316;2023-05-19T04:59:50;9.50;99.90
20815;DHT22;10568;48.176;16.316;2023-05-19T05:02:16;9.60;99.90
20815;DHT22;10568;48.176;16.316;2023-05-19T05:04:42;9.70;99.90
20815;DHT22;10568;48.176;16.316;2023-05-19T05:07:09;9.70;99.90
20815;DHT22;10568;48.176;16.316;2023-05-19T05:09:35;9.80;99.90
20815;DHT22;10568;48.176;16.316;2023-05-19T05:12:01;10.00;99.90
20815;DHT22;10568;48.176;16.316;2023-05-19T05:14:27;10.00;99.90
20815;DHT22;10568;48.176;16.316;2023-05-19T05:16:53;10.20;99.90
20815;DHT22;10568;48.176;16.316;2023-05-19T05:19:19;10.20;99.90
20815;DHT22;10568;48.176;16.316;2023-05-19T05:21:47;10.30;99.90
20815;DHT22;10568;48.176;16.316;2023-05-19T05:24:13;10.40;99.90
20815;DHT22;10568;48.176;16.316;2023-05-19T05:26:39;10.50;99.90
20815;DHT22;10568;48.176;16.316;2023-05-19T05:29:05;10.60;99.90
20815;DHT22;10568;48.176;16.316;2023-05-19T05:31:31;10.90;99.90
20815;DHT22;10568;48.176;16.316;2023-05-19T05:33:57;11.00;99.90
20815;DHT22;10568;48.176;16.316;2023-05-19T05:36:22;11.20;99.90
20815;DHT22;10568;48.176;16.316;2023-05-19T05:38:48;11.30;99.90
20815;DHT22;10568;48.176;16.316;2023-05-19T05:41:14;11.30;99.90
20815;DHT22;10568;48.176;16.316;2023-05-19T05:43:40;11.40;99.90
20815;DHT22;10568;48.176;16.316;2023-05-19T05:46:06;11.40;99.90
20815;DHT22;10568;48.176;16.316;2023-05-19T05:48:32;11.50;99.90
20815;DHT22;10568;48.176;16.316;2023-05-19T05:50:58;11.50;99.90
20815;DHT22;10568;48.176;16.316;2023-05-19T05:53:24;11.50;99.90
20815;DHT22;10568;48.176;16.316;2023-05-19T05:55:52;11.60;99.90
20815;DHT22;10568;48.176;16.316;2023-05-19T05:58:18;11.70;99.90
20815;DHT22;10568;48.176;16.316;2023-05-19T06:00:45;11.80;99.90
20815;DHT22;10568;48.176;16.316;2023-05-19T06:03:13;11.90;99.90
20815;DHT22;10568;48.176;16.316;2023-05-19T06:05:41;12.00;99.90
20815;DHT22;10568;48.176;16.316;2023-05-19T06:08:07;12.10;99.90
20815;DHT22;10568;48.176;16.316;2023-05-19T06:10:32;12.20;99.90
20815;DHT22;10568;48.176;16.316;2023-05-19T06:12:59;12.30;99.90
20815;DHT22;10568;48.176;16.316;2023-05-19T06:15:25;12.60;99.90
20815;DHT22;10568;48.176;16.316;2023-05-19T06:17:51;12.60;99.90
20815;DHT22;10568;48.176;16.316;2023-05-19T06:20:17;12.80;99.90
20815;DHT22;10568;48.176;16.316;2023-05-19T06:22:43;13.00;99.90
20815;DHT22;10568;48.176;16.316;2023-05-19T06:25:09;13.10;99.90
20815;DHT22;10568;48.176;16.316;2023-05-19T06:27:35;13.40;99.90
20815;DHT22;10568;48.176;16.316;2023-05-19T06:30:01;13.90;99.90
20815;DHT22;10568;48.176;16.316;2023-05-19T06:32:27;14.30;99.90
20815;DHT22;10568;48.176;16.316;2023-05-19T06:34:54;14.70;99.90
20815;DHT22;10568;48.176;16.316;2023-05-19T06:37:23;15.30;99.90
20815;DHT22;10568;48.176;16.316;2023-05-19T06:39:50;15.60;99.90
20815;DHT22;10568;48.176;16.316;2023-05-19T06:42:20;15.90;99.90
20815;DHT22;10568;48.176;16.316;2023-05-19T06:44:50;15.90;99.90
20815;DHT22;10568;48.176;16.316;2023-05-19T06:47:17;16.00;99.90
20815;DHT22;10568;48.176;16.316;2023-05-19T06:49:45;16.00;99.90
20815;DHT22;10568;48.176;16.316;2023-05-19T06:52:15;16.50;99.90
20815;DHT22;10568;48.176;16.316;2023-05-19T06:54:41;15.90;99.90
20815;DHT22;10568;48.176;16.316;2023-05-19T06:57:07;15.90;99.90
20815;DHT22;10568;48.176;16.316;2023-05-19T06:59:35;15.70;99.90
20815;DHT22;10568;48.176;16.316;2023-05-19T07:02:02;15.30;99.90
20815;DHT22;10568;48.176;16.316;2023-05-19T07:04:35;15.10;99.90
20815;DHT22;10568;48.176;16.316;2023-05-19T07:07:01;14.90;99.90
20815;DHT22;10568;48.176;16.316;2023-05-19T07:09:27;14.80;99.90
20815;DHT22;10568;48.176;16.316;2023-05-19T07:11:53;15.20;99.90
20815;DHT22;10568;48.176;16.316;2023-05-19T07:14:21;14.40;99.90
20815;DHT22;10568;48.176;16.316;2023-05-19T07:16:47;14.70;99.90
20815;DHT22;10568;48.176;16.316;2023-05-19T07:19:13;14.60;99.90
20815;DHT22;10568;48.176;16.316;2023-05-19T07:21:39;14.80;99.90
20815;DHT22;10568;48.176;16.316;2023-05-19T07:24:12;14.80;99.90
20815;DHT22;10568;48.176;16.316;2023-05-19T07:26:38;14.90;99.90
20815;DHT22;10568;48.176;16.316;2023-05-19T07:29:28;14.80;99.90
20815;DHT22;10568;48.176;16.316;2023-05-19T07:32:17;15.00;99.90
20815;DHT22;10568;48.176;16.316;2023-05-19T07:34:43;15.20;99.90
20815;DHT22;10568;48.176;16.316;2023-05-19T07:37:09;15.40;99.90
20815;DHT22;10568;48.176;16.316;2023-05-19T07:39:35;15.70;99.90
20815;DHT22;10568;48.176;16.316;2023-05-19T07:42:02;15.80;99.90
20815;DHT22;10568;48.176;16.316;2023-05-19T07:44:28;15.70;99.90
20815;DHT22;10568;48.176;16.316;2023-05-19T07:46:56;16.20;99.90
20815;DHT22;10568;48.176;16.316;2023-05-19T07:49:22;16.40;99.90
20815;DHT22;10568;48.176;16.316;2023-05-19T07:51:48;16.70;99.90
20815;DHT22;10568;48.176;16.316;2023-05-19T07:54:13;16.70;99.90
20815;DHT22;10568;48.176;16.316;2023-05-19T07:56:43;17.00;99.90
20815;DHT22;10568;48.176;16.316;2023-05-19T07:59:08;17.10;99.90
20815;DHT22;10568;48.176;16.316;2023-05-19T08:01:35;17.00;99.90
20815;DHT22;10568;48.176;16.316;2023-05-19T08:04:00;17.20;99.90
20815;DHT22;10568;48.176;16.316;2023-05-19T08:06:26;17.00;99.90
20815;DHT22;10568;48.176;16.316;2023-05-19T08:08:54;17.10;99.90
20815;DHT22;10568;48.176;16.316;2023-05-19T08:11:21;17.00;99.90
20815;DHT22;10568;48.176;16.316;2023-05-19T08:13:47;16.70;99.90
20815;DHT22;10568;48.176;16.316;2023-05-19T08:16:14;17.10;99.90
20815;DHT22;10568;48.176;16.316;2023-05-19T08:18:40;16.80;99.90
20815;DHT22;10568;48.176;16.316;2023-05-19T08:21:06;16.70;99.90
20815;DHT22;10568;48.176;16.316;2023-05-19T08:23:32;16.50;99.90
20815;DHT22;10568;48.176;16.316;2023-05-19T08:25:59;16.80;99.90
20815;DHT22;10568;48.176;16.316;2023-05-19T08:28:28;17.00;99.90
20815;DHT22;10568;48.176;16.316;2023-05-19T08:30:56;17.00;99.90
20815;DHT22;10568;48.176;16.316;2023-05-19T08:33:22;16.80;99.90
20815;DHT22;10568;48.176;16.316;2023-05-19T08:35:48;17.00;99.90
20815;DHT22;10568;48.176;16.316;2023-05-19T08:38:14;17.10;99.90
20815;DHT22;10568;48.176;16.316;2023-05-19T08:40:41;16.50;99.90
20815;DHT22;10568;48.176;16.316;2023-05-19T08:43:07;17.00;99.90
20815;DHT22;10568;48.176;16.316;2023-05-19T08:45:33;17.40;99.90
20815;DHT22;10568;48.176;16.316;2023-05-19T08:47:59;17.90;99.90
20815;DHT22;10568;48.176;16.316;2023-05-19T08:50:34;17.80;99.90
20815;DHT22;10568;48.176;16.316;2023-05-19T08:53:19;17.70;99.90
20815;DHT22;10568;48.176;16.316;2023-05-19T08:56:20;17.50;99.90
20815;DHT22;10568;48.176;16.316;2023-05-19T08:58:48;17.40;99.90
20815;DHT22;10568;48.176;16.316;2023-05-19T09:01:15;17.20;99.90
20815;DHT22;10568;48.176;16.316;2023-05-19T09:03:45;17.60;99.90
20815;DHT22;10568;48.176;16.316;2023-05-19T09:06:11;17.60;99.90
20815;DHT22;10568;48.176;16.316;2023-05-19T09:08:38;17.70;99.90
20815;DHT22;10568;48.176;16.316;2023-05-19T09:11:04;17.90;99.90
20815;DHT22;10568;48.176;16.316;2023-05-19T09:13:30;18.10;99.90
20815;DHT22;10568;48.176;16.316;2023-05-19T09:15:59;18.10;99.90
20815;DHT22;10568;48.176;16.316;2023-05-19T09:18:25;18.70;99.90
20815;DHT22;10568;48.176;16.316;2023-05-19T09:20:58;19.00;99.90
20815;DHT22;10568;48.176;16.316;2023-05-19T09:23:29;19.40;99.90
20815;DHT22;10568;48.176;16.316;2023-05-19T09:25:55;19.50;99.90
20815;DHT22;10568;48.176;16.316;2023-05-19T09:28:26;19.40;99.90
20815;DHT22;10568;48.176;16.316;2023-05-19T09:31:21;20.00;99.90
20815;DHT22;10568;48.176;16.316;2023-05-19T09:33:52;19.90;99.90
20815;DHT22;10568;48.176;16.316;2023-05-19T09:36:18;19.20;99.90
20815;DHT22;10568;48.176;16.316;2023-05-19T09:38:47;19.20;99.90
20815;DHT22;10568;48.176;16.316;2023-05-19T09:41:13;19.70;99.90
20815;DHT22;10568;48.176;16.316;2023-05-19T09:43:39;19.80;99.90
20815;DHT22;10568;48.176;16.316;2023-05-19T09:46:09;20.10;99.90
20815;DHT22;10568;48.176;16.316;2023-05-19T09:48:37;20.10;99.90
20815;DHT22;10568;48.176;16.316;2023-05-19T09:51:05;21.00;99.90
20815;DHT22;10568;48.176;16.316;2023-05-19T09:53:33;21.00;99.90
20815;DHT22;10568;48.176;16.316;2023-05-19T09:56:00;21.90;99.90
20815;DHT22;10568;48.176;16.316;2023-05-19T09:58:31;22.00;99.90
20815;DHT22;10568;48.176;16.316;2023-05-19T10:01:00;22.10;99.90
20815;DHT22;10568;48.176;16.316;2023-05-19T10:03:27;21.80;99.90
20815;DHT22;10568;48.176;16.316;2023-05-19T10:05:53;21.50;99.90
20815;DHT22;10568;48.176;16.316;2023-05-19T10:08:20;21.40;99.90
20815;DHT22;10568;48.176;16.316;2023-05-19T10:10:48;21.40;99.90
20815;DHT22;10568;48.176;16.316;2023-05-19T10:13:15;21.70;99.90
20815;DHT22;10568;48.176;16.316;2023-05-19T10:15:42;21.90;99.90
20815;DHT22;10568;48.176;16.316;2023-05-19T10:18:08;22.10;99.90
20815;DHT22;10568;48.176;16.316;2023-05-19T10:20:35;21.80;99.90
20815;DHT22;10568;48.176;16.316;2023-05-19T10:23:01;22.10;99.90
20815;DHT22;10568;48.176;16.316;2023-05-19T10:25:31;22.30;99.90
20815;DHT22;10568;48.176;16.316;2023-05-19T10:28:06;22.10;99.90
20815;DHT22;10568;48.176;16.316;2023-05-19T10:30:43;21.20;99.90
20815;DHT22;10568;48.176;16.316;2023-05-19T10:33:12;22.00;99.90
20815;DHT22;10568;48.176;16.316;2023-05-19T10:36:08;22.10;99.90
20815;DHT22;10568;48.176;16.316;2023-05-19T10:38:45;22.30;99.90
20815;DHT22;10568;48.176;16.316;2023-05-19T10:41:15;22.70;99.90
20815;DHT22;10568;48.176;16.316;2023-05-19T10:46:09;23.30;99.90
20815;DHT22;10568;48.176;16.316;2023-05-19T10:48:35;23.30;99.90
20815;DHT22;10568;48.176;16.316;2023-05-19T10:51:01;22.70;99.90
20815;DHT22;10568;48.176;16.316;2023-05-19T10:53:32;23.10;99.90
20815;DHT22;10568;48.176;16.316;2023-05-19T10:56:00;22.60;99.90
20815;DHT22;10568;48.176;16.316;2023-05-19T10:58:49;22.00;99.90
20815;DHT22;10568;48.176;16.316;2023-05-19T11:01:18;21.70;99.90
20815;DHT22;10568;48.176;16.316;2023-05-19T11:03:51;21.10;99.90
20815;DHT22;10568;48.176;16.316;2023-05-19T11:06:25;21.00;99.90
20815;DHT22;10568;48.176;16.316;2023-05-19T11:09:14;21.40;99.90
20815;DHT22;10568;48.176;16.316;2023-05-19T11:12:02;21.00;99.90
20815;DHT22;10568;48.176;16.316;2023-05-19T11:14:28;21.20;99.90
20815;DHT22;10568;48.176;16.316;2023-05-19T11:16:58;21.30;99.90
20815;DHT22;10568;48.176;16.316;2023-05-19T11:19:34;21.60;99.90
20815;DHT22;10568;48.176;16.316;2023-05-19T11:22:12;22.40;99.90
20815;DHT22;10568;48.176;16.316;2023-05-19T11:24:47;23.10;99.90
20815;DHT22;10568;48.176;16.316;2023-05-19T11:27:30;22.90;99.90
20815;DHT22;10568;48.176;16.316;2023-05-19T11:30:10;22.90;99.90
20815;DHT22;10568;48.176;16.316;2023-05-19T11:32:39;23.10;99.90
20815;DHT22;10568;48.176;16.316;2023-05-19T11:35:08;23.20;99.90
20815;DHT22;10568;48.176;16.316;2023-05-19T11:37:34;23.80;99.90
20815;DHT22;10568;48.176;16.316;2023-05-19T11:40:05;23.70;99.90
20815;DHT22;10568;48.176;16.316;2023-05-19T11:42:32;24.00;99.90
20815;DHT22;10568;48.176;16.316;2023-05-19T11:45:02;24.20;99.90
20815;DHT22;10568;48.176;16.316;2023-05-19T11:47:30;24.10;99.90
20815;DHT22;10568;48.176;16.316;2023-05-19T11:49:57;24.30;99.90
20815;DHT22;10568;48.176;16.316;2023-05-19T11:52:24;24.50;99.90
20815;DHT22;10568;48.176;16.316;2023-05-19T11:54:50;23.90;99.90
20815;DHT22;10568;48.176;16.316;2023-05-19T11:57:16;23.60;99.90
20815;DHT22;10568;48.176;16.316;2023-05-19T11:59:42;22.70;99.90
20815;DHT22;10568;48.176;16.316;2023-05-19T12:04:41;22.70;99.90
20815;DHT22;10568;48.176;16.316;2023-05-19T12:07:07;22.40;99.90
20815;DHT22;10568;48.176;16.316;2023-05-19T12:09:33;22.00;99.90
20815;DHT22;10568;48.176;16.316;2023-05-19T12:11:59;21.90;99.90
20815;DHT22;10568;48.176;16.316;2023-05-19T12:14:28;21.60;99.90
20815;DHT22;10568;48.176;16.316;2023-05-19T12:16:54;21.40;99.90
20815;DHT22;10568;48.176;16.316;2023-05-19T12:19:22;21.30;99.90
20815;DHT22;10568;48.176;16.316;2023-05-19T12:21:48;21.10;99.90
20815;DHT22;10568;48.176;16.316;2023-05-19T12:24:15;21.50;99.90
20815;DHT22;10568;48.176;16.316;2023-05-19T12:26:41;21.90;99.90
20815;DHT22;10568;48.176;16.316;2023-05-19T12:29:06;21.50;99.90
20815;DHT22;10568;48.176;16.316;2023-05-19T12:31:33;21.40;99.90
20815;DHT22;10568;48.176;16.316;2023-05-19T12:33:59;21.20;99.90
20815;DHT22;10568;48.176;16.316;2023-05-19T12:36:26;21.20;99.90
20815;DHT22;10568;48.176;16.316;2023-05-19T12:38:53;21.10;99.90
20815;DHT22;10568;48.176;16.316;2023-05-19T12:41:19;21.20;99.90
20815;DHT22;10568;48.176;16.316;2023-05-19T12:43:45;21.40;99.90
20815;DHT22;10568;48.176;16.316;2023-05-19T12:46:12;21.20;99.90
20815;DHT22;10568;48.176;16.316;2023-05-19T12:48:44;21.30;99.90
20815;DHT22;10568;48.176;16.316;2023-05-19T12:51:16;21.20;99.90
20815;DHT22;10568;48.176;16.316;2023-05-19T12:53:42;21.20;99.90
20815;DHT22;10568;48.176;16.316;2023-05-19T12:56:12;21.10;99.90
20815;DHT22;10568;48.176;16.316;2023-05-19T12:58:39;20.90;99.90
20815;DHT22;10568;48.176;16.316;2023-05-19T13:01:06;21.20;99.90
20815;DHT22;10568;48.176;16.316;2023-05-19T13:03:39;21.20;99.90
20815;DHT22;10568;48.176;16.316;2023-05-19T13:06:06;21.00;99.90
20815;DHT22;10568;48.176;16.316;2023-05-19T13:08:32;21.30;99.90
20815;DHT22;10568;48.176;16.316;2023-05-19T13:10:58;21.70;99.90
20815;DHT22;10568;48.176;16.316;2023-05-19T13:13:24;21.90;99.90
20815;DHT22;10568;48.176;16.316;2023-05-19T13:15:49;22.70;99.90
20815;DHT22;10568;48.176;16.316;2023-05-19T13:18:15;23.10;99.90
20815;DHT22;10568;48.176;16.316;2023-05-19T13:20:43;23.80;99.90
20815;DHT22;10568;48.176;16.316;2023-05-19T13:23:09;24.40;99.90
20815;DHT22;10568;48.176;16.316;2023-05-19T13:25:35;24.30;99.90
20815;DHT22;10568;48.176;16.316;2023-05-19T13:28:02;23.70;99.90
20815;DHT22;10568;48.176;16.316;2023-05-19T13:30:35;23.30;99.90
20815;DHT22;10568;48.176;16.316;2023-05-19T13:33:02;23.70;99.90
20815;DHT22;10568;48.176;16.316;2023-05-19T13:35:29;24.00;99.90
20815;DHT22;10568;48.176;16.316;2023-05-19T13:38:03;23.60;99.90
20815;DHT22;10568;48.176;16.316;2023-05-19T13:40:29;23.40;99.90
20815;DHT22;10568;48.176;16.316;2023-05-19T13:42:57;23.30;99.90
20815;DHT22;10568;48.176;16.316;2023-05-19T13:45:23;22.60;99.90
20815;DHT22;10568;48.176;16.316;2023-05-19T13:47:49;22.40;99.90
20815;DHT22;10568;48.176;16.316;2023-05-19T13:50:15;22.80;99.90
20815;DHT22;10568;48.176;16.316;2023-05-19T13:52:41;22.40;99.90
20815;DHT22;10568;48.176;16.316;2023-05-19T13:55:07;22.40;99.90
20815;DHT22;10568;48.176;16.316;2023-05-19T13:57:33;22.40;99.90
20815;DHT22;10568;48.176;16.316;2023-05-19T13:59:59;22.60;99.90
20815;DHT22;10568;48.176;16.316;2023-05-19T14:02:25;22.40;99.90
20815;DHT22;10568;48.176;16.316;2023-05-19T14:04:51;22.50;99.90
20815;DHT22;10568;48.176;16.316;2023-05-19T14:07:17;22.70;99.90
20815;DHT22;10568;48.176;16.316;2023-05-19T14:09:42;22.60;99.90
20815;DHT22;10568;48.176;16.316;2023-05-19T14:12:09;22.20;99.90
20815;DHT22;10568;48.176;16.316;2023-05-19T14:14:36;22.00;99.90
20815;DHT22;10568;48.176;16.316;2023-05-19T14:17:02;21.80;99.90
20815;DHT22;10568;48.176;16.316;2023-05-19T14:19:28;22.00;99.90
20815;DHT22;10568;48.176;16.316;2023-05-19T14:21:56;22.10;99.90
20815;DHT22;10568;48.176;16.316;2023-05-19T14:24:22;21.90;99.90
20815;DHT22;10568;48.176;16.316;2023-05-19T14:26:48;21.60;99.90
20815;DHT22;10568;48.176;16.316;2023-05-19T14:29:14;21.70;99.90
20815;DHT22;10568;48.176;16.316;2023-05-19T14:31:39;21.70;99.90
20815;DHT22;10568;48.176;16.316;2023-05-19T14:34:05;21.70;99.90
20815;DHT22;10568;48.176;16.316;2023-05-19T14:36:31;21.50;99.90
20815;DHT22;10568;48.176;16.316;2023-05-19T14:39:00;21.30;99.90
20815;DHT22;10568;48.176;16.316;2023-05-19T14:41:26;21.10;99.90
20815;DHT22;10568;48.176;16.316;2023-05-19T14:43:52;21.00;99.90
20815;DHT22;10568;48.176;16.316;2023-05-19T14:46:18;20.90;99.90
20815;DHT22;10568;48.176;16.316;2023-05-19T14:48:43;20.90;99.90
20815;DHT22;10568;48.176;16.316;2023-05-19T14:51:09;20.80;99.90
20815;DHT22;10568;48.176;16.316;2023-05-19T14:53:35;20.70;99.90
20815;DHT22;10568;48.176;16.316;2023-05-19T14:56:00;20.50;99.90
20815;DHT22;10568;48.176;16.316;2023-05-19T14:58:26;20.40;99.90
20815;DHT22;10568;48.176;16.316;2023-05-19T15:00:52;20.60;99.90
20815;DHT22;10568;48.176;16.316;2023-05-19T15:03:18;20.50;99.90
20815;DHT22;10568;48.176;16.316;2023-05-19T15:05:44;20.50;99.90
20815;DHT22;10568;48.176;16.316;2023-05-19T15:08:10;20.60;99.90
20815;DHT22;10568;48.176;16.316;2023-05-19T15:10:35;20.50;99.90
20815;DHT22;10568;48.176;16.316;2023-05-19T15:13:01;20.50;99.90
20815;DHT22;10568;48.176;16.316;2023-05-19T15:15:34;20.20;99.90
20815;DHT22;10568;48.176;16.316;2023-05-19T15:18:00;20.10;99.90
20815;DHT22;10568;48.176;16.316;2023-05-19T15:20:26;20.20;99.90
20815;DHT22;10568;48.176;16.316;2023-05-19T15:22:52;20.00;99.90
20815;DHT22;10568;48.176;16.316;2023-05-19T15:25:17;19.90;99.90
20815;DHT22;10568;48.176;16.316;2023-05-19T15:27:43;19.90;99.90
20815;DHT22;10568;48.176;16.316;2023-05-19T15:30:09;19.90;99.90
20815;DHT22;10568;48.176;16.316;2023-05-19T15:32:35;19.90;99.90
20815;DHT22;10568;48.176;16.316;2023-05-19T15:35:00;19.80;99.90
20815;DHT22;10568;48.176;16.316;2023-05-19T15:37:26;19.90;99.90
20815;DHT22;10568;48.176;16.316;2023-05-19T15:39:52;19.90;99.90
20815;DHT22;10568;48.176;16.316;2023-05-19T15:42:19;19.80;99.90
20815;DHT22;10568;48.176;16.316;2023-05-19T15:44:45;19.90;99.90
20815;DHT22;10568;48.176;16.316;2023-05-19T15:47:11;20.00;99.90
20815;DHT22;10568;48.176;16.316;2023-05-19T15:49:37;20.10;99.90
20815;DHT22;10568;48.176;16.316;2023-05-19T15:52:03;20.10;99.90